»·PEaware :: ASA304 KPDX-KSEA

ASA304 :: KPDX-KSEA

FLIGHT INFORMATION

Flight Status: Arrived
Operator:
Alaska Airlines
More flights by this operator :: More flights under this callsign
Pilot: Zachary C. (8151)
Aircraft: AIRBUS A319
(A319)
More flights by this aircraft type
Origin: KPDX Portland Intl
United States
Destination: KSEA Seattle-Tacoma Intl
United States
More flights between these airports :: More routes between these airports
Route: +PTLD1 COUGA KRIEG HAWKZ7
File this flight plan on PilotEdge
Remarks:
Altitude:
(Current/Filed)
20,000ft
Speed:
(Current/Filed)
360kts
Departed: 15-Jul-19 11:55 AM
Arrived: 15-Jul-19 12:27 PM
Distance/Time
Traveled:
112nm/0:31
Distance/Time
To Go:
Arrived

Flight Plot

Page will automatically refresh every two minutes.

Flight plan parsing failed; only flown route is shown


Map Options




Map Legend


Flown Route
Filed Route
Departure Airport
Arrival Airport
Navaid (VOR, NDB)
Fix

Horizontal Profiles

Position Reports

Time Latitude Longitude Heading Altitude Ground
Speed
15-Jul-19 11:27 45.589650 -122.599440 51 32ft 0kts
15-Jul-19 11:28 45.589650 -122.599440 51 32ft 0kts
15-Jul-19 11:29 45.589650 -122.599440 51 32ft 0kts
15-Jul-19 11:30 45.589650 -122.599440 51 32ft 0kts
15-Jul-19 11:31 45.589650 -122.599440 51 32ft 0kts
15-Jul-19 11:32 45.589650 -122.599440 51 32ft 0kts
15-Jul-19 11:33 45.589650 -122.599440 51 32ft 0kts
15-Jul-19 11:34 45.589650 -122.599440 51 32ft 0kts
15-Jul-19 11:35 45.589650 -122.599440 51 32ft 0kts
15-Jul-19 11:36 45.589650 -122.599440 51 32ft 0kts
15-Jul-19 11:37 45.589650 -122.599440 51 32ft 0kts
15-Jul-19 11:38 45.589650 -122.599440 51 32ft 0kts
15-Jul-19 11:39 45.589650 -122.599440 51 32ft 0kts
15-Jul-19 11:40 45.589650 -122.599440 51 32ft 0kts
15-Jul-19 11:41 45.589650 -122.599440 51 32ft 0kts
15-Jul-19 11:42 45.589650 -122.599440 51 32ft 0kts
15-Jul-19 11:43 45.589650 -122.599440 51 32ft 0kts
15-Jul-19 11:44 45.589650 -122.599441 46 32ft 0kts
15-Jul-19 11:45 45.589650 -122.599441 46 32ft 0kts
15-Jul-19 11:46 45.589236 -122.599783 6 32ft 2kts
15-Jul-19 11:47 45.588684 -122.599497 311 32ft 2kts
15-Jul-19 11:48 45.588588 -122.599298 296 32ft 0kts
15-Jul-19 11:49 45.588588 -122.599298 296 32ft 0kts
15-Jul-19 11:50 45.589364 -122.601257 297 32ft 10kts
15-Jul-19 11:51 45.592003 -122.600969 44 32ft 17kts
15-Jul-19 11:52 45.594342 -122.597683 41 32ft 0kts
15-Jul-19 11:53 45.594611 -122.597336 41 32ft 5kts
15-Jul-19 11:54 45.587112 -122.575896 118 39ft 165kts
15-Jul-19 11:55 45.564654 -122.515278 117 2407ft 187kts
15-Jul-19 11:56 45.535920 -122.435013 117 4486ft 264kts
15-Jul-19 11:57 45.562350 -122.347402 10 7818ft 289kts
15-Jul-19 11:58 45.637034 -122.383049 333 10716ft 306kts
15-Jul-19 11:59 45.724061 -122.439592 334 11860ft 384kts
15-Jul-19 12:00 45.826743 -122.505719 333 14225ft 412kts
15-Jul-19 12:01 45.933851 -122.574992 333 16678ft 426kts
15-Jul-19 12:02 46.043766 -122.646420 332 18802ft 439kts
15-Jul-19 12:03 46.165770 -122.693113 348 20152ft 455kts
15-Jul-19 12:04 46.292329 -122.717239 349 20161ft 455kts
15-Jul-19 12:05 46.420032 -122.726633 355 20162ft 458kts
15-Jul-19 12:06 46.547599 -122.731003 355 20160ft 459kts
15-Jul-19 12:07 46.674880 -122.735605 355 18733ft 447kts
15-Jul-19 12:08 46.793519 -122.727554 24 16405ft 402kts
15-Jul-19 12:09 46.873147 -122.636017 35 14707ft 334kts
15-Jul-19 12:10 46.945648 -122.559979 20 13909ft 313kts
15-Jul-19 12:11 47.027484 -122.523418 14 12675ft 301kts
15-Jul-19 12:12 47.107926 -122.495453 5 11424ft 292kts
15-Jul-19 12:13 47.187971 -122.481023 5 10188ft 286kts
15-Jul-19 12:14 47.266532 -122.469016 4 8980ft 279kts
15-Jul-19 12:15 47.342123 -122.457467 4 8214ft 251kts
15-Jul-19 12:16 47.410781 -122.455981 358 7186ft 241kts
15-Jul-19 12:17 47.477088 -122.455997 358 6101ft 235kts
15-Jul-19 12:18 47.542431 -122.456012 359 4993ft 231kts
15-Jul-19 12:19 47.606708 -122.455744 359 3994ft 226kts
15-Jul-19 12:20 47.668728 -122.445653 42 3987ft 226kts
15-Jul-19 12:21 47.682995 -122.357934 84 3987ft 220kts
15-Jul-19 12:22 47.650493 -122.300865 189 3972ft 227kts
15-Jul-19 12:23 47.587117 -122.306688 179 2870ft 230kts
15-Jul-19 12:24 47.523523 -122.307271 179 1639ft 212kts
15-Jul-19 12:25 47.474648 -122.307645 179 667ft 144kts
15-Jul-19 12:26 47.446794 -122.307905 180 442ft 21kts
15-Jul-19 12:27 47.444574 -122.306124 182 442ft 12kts
15-Jul-19 12:28 47.440104 -122.306297 156 442ft 17kts
15-Jul-19 12:29 47.441302 -122.303085 272 442ft 0kts

Navigation Log

Ident Type
Flight plan parsing failed, navigation log unavailable